sensor_id;sensor_type;location;lat;lon;timestamp;temperature;humidity
42973;DHT22;28610;51.214;6.962;2022-09-29T00:01:15;9.10;99.90
42973;DHT22;28610;51.214;6.962;2022-09-29T00:04:02;9.10;99.90
42973;DHT22;28610;51.214;6.962;2022-09-29T00:06:47;9.00;99.90
42973;DHT22;28610;51.214;6.962;2022-09-29T00:09:34;9.10;99.90
42973;DHT22;28610;51.214;6.962;2022-09-29T00:12:19;9.10;99.90
42973;DHT22;28610;51.214;6.962;2022-09-29T00:15:05;9.10;99.90
42973;DHT22;28610;51.214;6.962;2022-09-29T00:17:51;9.10;99.90
42973;DHT22;28610;51.214;6.962;2022-09-29T00:20:37;9.00;99.90
42973;DHT22;28610;51.214;6.962;2022-09-29T00:23:23;9.00;99.90
42973;DHT22;28610;51.214;6.962;2022-09-29T00:26:11;9.00;99.90
42973;DHT22;28610;51.214;6.962;2022-09-29T00:28:58;8.90;99.90
42973;DHT22;28610;51.214;6.962;2022-09-29T00:31:44;8.90;99.90
42973;DHT22;28610;51.214;6.962;2022-09-29T00:34:29;8.80;99.90
42973;DHT22;28610;51.214;6.962;2022-09-29T00:37:15;8.70;99.90
42973;DHT22;28610;51.214;6.962;2022-09-29T00:40:00;8.70;99.90
42973;DHT22;28610;51.214;6.962;2022-09-29T00:42:47;8.70;99.90
42973;DHT22;28610;51.214;6.962;2022-09-29T00:45:32;8.60;99.90
42973;DHT22;28610;51.214;6.962;2022-09-29T00:48:22;8.50;99.90
42973;DHT22;28610;51.214;6.962;2022-09-29T00:51:10;8.50;99.90
42973;DHT22;28610;51.214;6.962;2022-09-29T00:53:56;8.40;99.90
42973;DHT22;28610;51.214;6.962;2022-09-29T00:56:42;8.50;99.90
42973;DHT22;28610;51.214;6.962;2022-09-29T00:59:32;8.40;99.90
42973;DHT22;28610;51.214;6.962;2022-09-29T01:02:20;8.40;99.90
42973;DHT22;28610;51.214;6.962;2022-09-29T01:05:09;8.40;99.90
42973;DHT22;28610;51.214;6.962;2022-09-29T01:07:56;8.40;99.90
42973;DHT22;28610;51.214;6.962;2022-09-29T01:10:42;8.40;99.90
42973;DHT22;28610;51.214;6.962;2022-09-29T01:13:29;8.40;99.90
42973;DHT22;28610;51.214;6.962;2022-09-29T01:16:17;8.30;99.90
42973;DHT22;28610;51.214;6.962;2022-09-29T01:19:07;8.30;99.90
42973;DHT22;28610;51.214;6.962;2022-09-29T01:22:08;8.20;99.90
42973;DHT22;28610;51.214;6.962;2022-09-29T01:24:58;8.20;99.90
42973;DHT22;28610;51.214;6.962;2022-09-29T01:28:20;8.20;99.90
42973;DHT22;28610;51.214;6.962;2022-09-29T01:31:16;8.10;99.90
42973;DHT22;28610;51.214;6.962;2022-09-29T01:34:08;8.10;99.90
42973;DHT22;28610;51.214;6.962;2022-09-29T01:37:02;8.20;99.90
42973;DHT22;28610;51.214;6.962;2022-09-29T01:39:56;8.10;99.90
42973;DHT22;28610;51.214;6.962;2022-09-29T01:42:53;8.10;99.90
42973;DHT22;28610;51.214;6.962;2022-09-29T01:45:42;8.10;99.90
42973;DHT22;28610;51.214;6.962;2022-09-29T01:48:32;8.10;99.90
42973;DHT22;28610;51.214;6.962;2022-09-29T01:51:23;8.10;99.90
42973;DHT22;28610;51.214;6.962;2022-09-29T01:54:13;8.00;99.90
42973;DHT22;28610;51.214;6.962;2022-09-29T01:57:02;8.00;99.90
42973;DHT22;28610;51.214;6.962;2022-09-29T01:59:55;8.00;99.90
42973;DHT22;28610;51.214;6.962;2022-09-29T02:02:46;8.00;99.90
42973;DHT22;28610;51.214;6.962;2022-09-29T02:05:38;8.00;99.90
42973;DHT22;28610;51.214;6.962;2022-09-29T02:08:28;8.00;99.90
42973;DHT22;28610;51.214;6.962;2022-09-29T02:11:17;8.00;99.90
42973;DHT22;28610;51.214;6.962;2022-09-29T02:14:05;8.00;99.90
42973;DHT22;28610;51.214;6.962;2022-09-29T02:16:56;7.90;99.90
42973;DHT22;28610;51.214;6.962;2022-09-29T02:19:47;7.90;99.90
42973;DHT22;28610;51.214;6.962;2022-09-29T02:22:35;7.90;99.90
42973;DHT22;28610;51.214;6.962;2022-09-29T02:25:22;7.90;99.90
42973;DHT22;28610;51.214;6.962;2022-09-29T02:28:08;7.90;99.90
42973;DHT22;28610;51.214;6.962;2022-09-29T02:30:54;7.90;99.90
42973;DHT22;28610;51.214;6.962;2022-09-29T02:33:39;7.80;99.90
42973;DHT22;28610;51.214;6.962;2022-09-29T02:36:33;7.90;99.90
42973;DHT22;28610;51.214;6.962;2022-09-29T02:39:34;7.80;99.90
42973;DHT22;28610;51.214;6.962;2022-09-29T02:42:27;7.80;99.90
42973;DHT22;28610;51.214;6.962;2022-09-29T02:45:22;7.80;99.90
42973;DHT22;28610;51.214;6.962;2022-09-29T02:48:19;7.80;99.90
42973;DHT22;28610;51.214;6.962;2022-09-29T02:51:12;7.80;99.90
42973;DHT22;28610;51.214;6.962;2022-09-29T02:54:12;7.70;99.90
42973;DHT22;28610;51.214;6.962;2022-09-29T02:57:11;7.70;99.90
42973;DHT22;28610;51.214;6.962;2022-09-29T03:00:03;7.70;99.90
42973;DHT22;28610;51.214;6.962;2022-09-29T03:02:53;7.70;99.90
42973;DHT22;28610;51.214;6.962;2022-09-29T03:05:38;7.70;99.90
42973;DHT22;28610;51.214;6.962;2022-09-29T03:08:23;7.70;99.90
42973;DHT22;28610;51.214;6.962;2022-09-29T03:11:09;7.60;99.90
42973;DHT22;28610;51.214;6.962;2022-09-29T03:13:56;7.60;99.90
42973;DHT22;28610;51.214;6.962;2022-09-29T03:16:41;7.60;99.90
42973;DHT22;28610;51.214;6.962;2022-09-29T03:19:26;7.60;99.90
42973;DHT22;28610;51.214;6.962;2022-09-29T03:22:12;7.60;99.90
42973;DHT22;28610;51.214;6.962;2022-09-29T03:24:57;7.60;99.90
42973;DHT22;28610;51.214;6.962;2022-09-29T03:27:43;7.60;99.90
42973;DHT22;28610;51.214;6.962;2022-09-29T03:30:30;7.60;99.90
42973;DHT22;28610;51.214;6.962;2022-09-29T03:33:15;7.60;99.90
42973;DHT22;28610;51.214;6.962;2022-09-29T03:36:01;7.60;99.90
42973;DHT22;28610;51.214;6.962;2022-09-29T03:38:48;7.50;99.90
42973;DHT22;28610;51.214;6.962;2022-09-29T03:41:33;7.50;99.90
42973;DHT22;28610;51.214;6.962;2022-09-29T03:44:19;7.50;99.90
42973;DHT22;28610;51.214;6.962;2022-09-29T03:47:06;7.50;99.90
42973;DHT22;28610;51.214;6.962;2022-09-29T03:49:51;7.50;99.90
42973;DHT22;28610;51.214;6.962;2022-09-29T03:52:37;7.40;99.90
42973;DHT22;28610;51.214;6.962;2022-09-29T03:55:22;7.40;99.90
42973;DHT22;28610;51.214;6.962;2022-09-29T03:58:07;7.50;99.90
42973;DHT22;28610;51.214;6.962;2022-09-29T04:00:53;7.50;99.90
42973;DHT22;28610;51.214;6.962;2022-09-29T04:03:40;7.40;99.90
42973;DHT22;28610;51.214;6.962;2022-09-29T04:06:25;7.40;99.90
42973;DHT22;28610;51.214;6.962;2022-09-29T04:09:11;7.40;99.90
42973;DHT22;28610;51.214;6.962;2022-09-29T04:11:56;7.40;99.90
42973;DHT22;28610;51.214;6.962;2022-09-29T04:14:41;7.40;99.90
42973;DHT22;28610;51.214;6.962;2022-09-29T04:17:27;7.30;99.90
42973;DHT22;28610;51.214;6.962;2022-09-29T04:20:14;7.30;99.90
42973;DHT22;28610;51.214;6.962;2022-09-29T04:22:59;7.30;99.90
42973;DHT22;28610;51.214;6.962;2022-09-29T04:25:44;7.30;99.90
42973;DHT22;28610;51.214;6.962;2022-09-29T04:28:31;7.30;99.90
42973;DHT22;28610;51.214;6.962;2022-09-29T04:31:16;7.30;99.90
42973;DHT22;28610;51.214;6.962;2022-09-29T04:34:02;7.30;99.90
42973;DHT22;28610;51.214;6.962;2022-09-29T04:36:48;7.30;99.90
42973;DHT22;28610;51.214;6.962;2022-09-29T04:39:33;7.30;99.90
42973;DHT22;28610;51.214;6.962;2022-09-29T04:42:19;7.30;99.90
42973;DHT22;28610;51.214;6.962;2022-09-29T04:45:05;7.30;99.90
42973;DHT22;28610;51.214;6.962;2022-09-29T04:47:50;7.30;99.90
42973;DHT22;28610;51.214;6.962;2022-09-29T04:50:36;7.20;99.90
42973;DHT22;28610;51.214;6.962;2022-09-29T04:53:23;7.20;99.90
42973;DHT22;28610;51.214;6.962;2022-09-29T04:56:08;7.20;99.90
42973;DHT22;28610;51.214;6.962;2022-09-29T04:58:54;7.10;99.90
42973;DHT22;28610;51.214;6.962;2022-09-29T05:01:39;7.10;99.90
42973;DHT22;28610;51.214;6.962;2022-09-29T05:04:24;7.00;99.90
42973;DHT22;28610;51.214;6.962;2022-09-29T05:07:10;7.00;99.90
42973;DHT22;28610;51.214;6.962;2022-09-29T05:09:56;7.00;99.90
42973;DHT22;28610;51.214;6.962;2022-09-29T05:12:46;6.90;99.90
42973;DHT22;28610;51.214;6.962;2022-09-29T05:15:32;6.90;99.90
42973;DHT22;28610;51.214;6.962;2022-09-29T05:18:18;6.90;99.90
42973;DHT22;28610;51.214;6.962;2022-09-29T05:21:05;6.90;99.90
42973;DHT22;28610;51.214;6.962;2022-09-29T05:23:50;6.90;99.90
42973;DHT22;28610;51.214;6.962;2022-09-29T05:26:37;6.90;99.90
42973;DHT22;28610;51.214;6.962;2022-09-29T05:29:23;6.90;99.90
42973;DHT22;28610;51.214;6.962;2022-09-29T05:32:08;6.90;99.90
42973;DHT22;28610;51.214;6.962;2022-09-29T05:34:54;6.90;99.90
42973;DHT22;28610;51.214;6.962;2022-09-29T05:37:39;6.90;99.90
42973;DHT22;28610;51.214;6.962;2022-09-29T05:40:24;6.90;99.90
42973;DHT22;28610;51.214;6.962;2022-09-29T05:43:11;7.00;99.90
42973;DHT22;28610;51.214;6.962;2022-09-29T05:45:59;7.00;99.90
42973;DHT22;28610;51.214;6.962;2022-09-29T05:48:45;7.00;99.90
42973;DHT22;28610;51.214;6.962;2022-09-29T05:51:30;7.00;99.90
42973;DHT22;28610;51.214;6.962;2022-09-29T05:54:16;7.10;99.90
42973;DHT22;28610;51.214;6.962;2022-09-29T05:57:01;7.10;99.90
42973;DHT22;28610;51.214;6.962;2022-09-29T05:59:48;7.10;99.90
42973;DHT22;28610;51.214;6.962;2022-09-29T06:02:33;7.10;99.90
42973;DHT22;28610;51.214;6.962;2022-09-29T06:05:19;7.10;99.90
42973;DHT22;28610;51.214;6.962;2022-09-29T06:08:04;7.20;99.90
42973;DHT22;28610;51.214;6.962;2022-09-29T06:10:50;7.20;99.90
42973;DHT22;28610;51.214;6.962;2022-09-29T06:13:37;7.20;99.90
42973;DHT22;28610;51.214;6.962;2022-09-29T06:16:25;7.30;99.90
42973;DHT22;28610;51.214;6.962;2022-09-29T06:19:10;7.30;99.90
42973;DHT22;28610;51.214;6.962;2022-09-29T06:21:56;7.30;99.90
42973;DHT22;28610;51.214;6.962;2022-09-29T06:24:42;7.30;99.90
42973;DHT22;28610;51.214;6.962;2022-09-29T06:27:27;7.40;99.90
42973;DHT22;28610;51.214;6.962;2022-09-29T06:30:13;7.50;99.90
42973;DHT22;28610;51.214;6.962;2022-09-29T06:33:00;7.60;99.90
42973;DHT22;28610;51.214;6.962;2022-09-29T06:35:46;7.60;99.90
42973;DHT22;28610;51.214;6.962;2022-09-29T06:38:49;7.90;99.90
42973;DHT22;28610;51.214;6.962;2022-09-29T06:41:34;8.20;99.90
42973;DHT22;28610;51.214;6.962;2022-09-29T06:44:21;8.40;99.90
42973;DHT22;28610;51.214;6.962;2022-09-29T06:47:07;8.60;99.90
42973;DHT22;28610;51.214;6.962;2022-09-29T06:49:54;8.70;99.90
42973;DHT22;28610;51.214;6.962;2022-09-29T06:52:41;8.80;99.90
42973;DHT22;28610;51.214;6.962;2022-09-29T06:55:27;8.90;99.90
42973;DHT22;28610;51.214;6.962;2022-09-29T06:58:13;9.20;99.90
42973;DHT22;28610;51.214;6.962;2022-09-29T07:00:59;9.10;99.90
42973;DHT22;28610;51.214;6.962;2022-09-29T07:03:45;9.00;99.90
42973;DHT22;28610;51.214;6.962;2022-09-29T07:06:32;9.30;99.90
42973;DHT22;28610;51.214;6.962;2022-09-29T07:09:19;9.30;99.90
42973;DHT22;28610;51.214;6.962;2022-09-29T07:12:04;9.10;99.90
42973;DHT22;28610;51.214;6.962;2022-09-29T07:14:50;9.20;99.90
42973;DHT22;28610;51.214;6.962;2022-09-29T07:17:36;9.30;99.90
42973;DHT22;28610;51.214;6.962;2022-09-29T07:20:21;9.40;99.90
42973;DHT22;28610;51.214;6.962;2022-09-29T07:23:08;9.50;99.90
42973;DHT22;28610;51.214;6.962;2022-09-29T07:25:53;9.60;99.90
42973;DHT22;28610;51.214;6.962;2022-09-29T07:28:39;9.40;99.90
42973;DHT22;28610;51.214;6.962;2022-09-29T07:31:24;9.40;99.90
42973;DHT22;28610;51.214;6.962;2022-09-29T07:34:10;9.50;99.90
42973;DHT22;28610;51.214;6.962;2022-09-29T07:36:55;9.40;99.90
42973;DHT22;28610;51.214;6.962;2022-09-29T07:39:42;9.40;99.90
42973;DHT22;28610;51.214;6.962;2022-09-29T07:42:28;9.20;99.90
42973;DHT22;28610;51.214;6.962;2022-09-29T07:45:13;9.30;99.90
42973;DHT22;28610;51.214;6.962;2022-09-29T07:47:59;9.30;99.90
42973;DHT22;28610;51.214;6.962;2022-09-29T07:50:45;9.30;99.90
42973;DHT22;28610;51.214;6.962;2022-09-29T07:53:31;9.30;99.90
42973;DHT22;28610;51.214;6.962;2022-09-29T07:56:19;9.40;99.90
42973;DHT22;28610;51.214;6.962;2022-09-29T07:59:05;9.40;99.90
42973;DHT22;28610;51.214;6.962;2022-09-29T08:01:50;9.50;99.90
42973;DHT22;28610;51.214;6.962;2022-09-29T08:04:36;9.50;99.90
42973;DHT22;28610;51.214;6.962;2022-09-29T08:07:21;9.60;99.90
42973;DHT22;28610;51.214;6.962;2022-09-29T08:10:07;9.60;99.90
42973;DHT22;28610;51.214;6.962;2022-09-29T08:12:54;9.50;99.90
42973;DHT22;28610;51.214;6.962;2022-09-29T08:15:39;9.60;99.90
42973;DHT22;28610;51.214;6.962;2022-09-29T08:18:25;9.70;99.90
42973;DHT22;28610;51.214;6.962;2022-09-29T08:21:11;9.70;99.90
42973;DHT22;28610;51.214;6.962;2022-09-29T08:23:57;9.80;99.90
42973;DHT22;28610;51.214;6.962;2022-09-29T08:26:43;9.80;99.90
42973;DHT22;28610;51.214;6.962;2022-09-29T08:29:30;9.90;99.90
42973;DHT22;28610;51.214;6.962;2022-09-29T08:32:15;9.90;99.90
42973;DHT22;28610;51.214;6.962;2022-09-29T08:35:01;10.00;99.90
42973;DHT22;28610;51.214;6.962;2022-09-29T08:37:46;10.10;99.90
42973;DHT22;28610;51.214;6.962;2022-09-29T08:40:32;10.20;99.90
42973;DHT22;28610;51.214;6.962;2022-09-29T08:43:21;10.20;99.90
42973;DHT22;28610;51.214;6.962;2022-09-29T08:46:15;10.30;99.90
42973;DHT22;28610;51.214;6.962;2022-09-29T08:49:09;10.30;99.90
42973;DHT22;28610;51.214;6.962;2022-09-29T08:51:59;10.50;99.90
42973;DHT22;28610;51.214;6.962;2022-09-29T08:54:49;10.50;99.90
42973;DHT22;28610;51.214;6.962;2022-09-29T08:57:37;10.50;99.90
42973;DHT22;28610;51.214;6.962;2022-09-29T09:00:29;10.70;99.90
42973;DHT22;28610;51.214;6.962;2022-09-29T09:03:48;10.70;99.90
42973;DHT22;28610;51.214;6.962;2022-09-29T09:06:46;10.70;99.90
42973;DHT22;28610;51.214;6.962;2022-09-29T09:09:48;10.80;99.90
42973;DHT22;28610;51.214;6.962;2022-09-29T09:12:51;10.80;99.90
42973;DHT22;28610;51.214;6.962;2022-09-29T09:16:00;11.00;99.90
42973;DHT22;28610;51.214;6.962;2022-09-29T09:19:19;10.90;99.90
42973;DHT22;28610;51.214;6.962;2022-09-29T09:22:18;11.00;99.90
42973;DHT22;28610;51.214;6.962;2022-09-29T09:25:14;11.00;99.90
42973;DHT22;28610;51.214;6.962;2022-09-29T09:28:05;11.20;99.90
42973;DHT22;28610;51.214;6.962;2022-09-29T09:30:53;11.20;99.90
42973;DHT22;28610;51.214;6.962;2022-09-29T09:33:44;11.70;98.70
42973;DHT22;28610;51.214;6.962;2022-09-29T09:36:35;11.90;98.70
42973;DHT22;28610;51.214;6.962;2022-09-29T09:39:26;12.00;98.40
42973;DHT22;28610;51.214;6.962;2022-09-29T09:42:14;11.80;98.90
42973;DHT22;28610;51.214;6.962;2022-09-29T09:45:04;11.80;99.40
42973;DHT22;28610;51.214;6.962;2022-09-29T09:47:52;11.90;98.40
42973;DHT22;28610;51.214;6.962;2022-09-29T09:50:41;12.80;96.40
42973;DHT22;28610;51.214;6.962;2022-09-29T09:53:33;14.50;92.50
42973;DHT22;28610;51.214;6.962;2022-09-29T09:56:37;16.50;81.70
42973;DHT22;28610;51.214;6.962;2022-09-29T09:59:38;16.90;80.50
42973;DHT22;28610;51.214;6.962;2022-09-29T10:02:28;17.20;76.20
42973;DHT22;28610;51.214;6.962;2022-09-29T10:05:16;17.80;70.10
42973;DHT22;28610;51.214;6.962;2022-09-29T10:08:02;18.90;66.80
42973;DHT22;28610;51.214;6.962;2022-09-29T10:10:49;19.00;62.10
42973;DHT22;28610;51.214;6.962;2022-09-29T10:13:35;20.20;56.40
42973;DHT22;28610;51.214;6.962;2022-09-29T10:16:26;21.30;54.50
42973;DHT22;28610;51.214;6.962;2022-09-29T10:19:13;20.80;51.80
42973;DHT22;28610;51.214;6.962;2022-09-29T10:22:11;21.40;50.70
42973;DHT22;28610;51.214;6.962;2022-09-29T10:25:06;21.20;49.10
42973;DHT22;28610;51.214;6.962;2022-09-29T10:27:54;21.20;47.30
42973;DHT22;28610;51.214;6.962;2022-09-29T10:30:40;21.50;46.30
42973;DHT22;28610;51.214;6.962;2022-09-29T10:33:26;22.50;41.30
42973;DHT22;28610;51.214;6.962;2022-09-29T10:36:12;22.60;41.50
42973;DHT22;28610;51.214;6.962;2022-09-29T10:38:57;22.80;42.10
42973;DHT22;28610;51.214;6.962;2022-09-29T10:41:50;23.00;39.20
42973;DHT22;28610;51.214;6.962;2022-09-29T10:44:38;22.30;41.90
42973;DHT22;28610;51.214;6.962;2022-09-29T10:47:24;22.70;40.50
42973;DHT22;28610;51.214;6.962;2022-09-29T10:50:15;22.80;39.30
42973;DHT22;28610;51.214;6.962;2022-09-29T10:53:03;23.50;38.10
42973;DHT22;28610;51.214;6.962;2022-09-29T10:55:52;24.20;36.90
42973;DHT22;28610;51.214;6.962;2022-09-29T10:58:40;22.70;40.60
42973;DHT22;28610;51.214;6.962;2022-09-29T11:01:29;19.90;44.70
42973;DHT22;28610;51.214;6.962;2022-09-29T11:04:18;18.10;51.80
42973;DHT22;28610;51.214;6.962;2022-09-29T11:07:07;17.10;51.30
42973;DHT22;28610;51.214;6.962;2022-09-29T11:09:53;16.70;57.70
42973;DHT22;28610;51.214;6.962;2022-09-29T11:12:39;16.90;55.70
42973;DHT22;28610;51.214;6.962;2022-09-29T11:15:26;16.90;59.70
42973;DHT22;28610;51.214;6.962;2022-09-29T11:18:20;16.70;58.50
42973;DHT22;28610;51.214;6.962;2022-09-29T11:24:39;16.80;61.80
42973;DHT22;28610;51.214;6.962;2022-09-29T11:27:36;16.70;57.20
42973;DHT22;28610;51.214;6.962;2022-09-29T11:30:25;17.30;59.90
42973;DHT22;28610;51.214;6.962;2022-09-29T11:33:23;17.10;52.40
42973;DHT22;28610;51.214;6.962;2022-09-29T11:36:20;16.80;53.90
42973;DHT22;28610;51.214;6.962;2022-09-29T11:39:19;16.40;54.70
42973;DHT22;28610;51.214;6.962;2022-09-29T11:42:18;16.60;55.90
42973;DHT22;28610;51.214;6.962;2022-09-29T11:45:08;16.70;59.10
42973;DHT22;28610;51.214;6.962;2022-09-29T11:51:38;16.30;59.60
42973;DHT22;28610;51.214;6.962;2022-09-29T11:54:40;16.00;59.80
42973;DHT22;28610;51.214;6.962;2022-09-29T11:57:41;16.20;59.50
42973;DHT22;28610;51.214;6.962;2022-09-29T12:00:43;16.10;57.00
42973;DHT22;28610;51.214;6.962;2022-09-29T12:03:37;15.90;60.70
42973;DHT22;28610;51.214;6.962;2022-09-29T12:06:44;16.20;58.20
42973;DHT22;28610;51.214;6.962;2022-09-29T12:09:48;16.40;57.30
42973;DHT22;28610;51.214;6.962;2022-09-29T12:12:41;16.30;56.80
42973;DHT22;28610;51.214;6.962;2022-09-29T12:15:38;16.30;55.00
42973;DHT22;28610;51.214;6.962;2022-09-29T12:18:29;16.30;54.60
42973;DHT22;28610;51.214;6.962;2022-09-29T12:21:19;16.20;53.90
42973;DHT22;28610;51.214;6.962;2022-09-29T12:24:12;16.50;58.80
42973;DHT22;28610;51.214;6.962;2022-09-29T12:26:59;16.60;54.50
42973;DHT22;28610;51.214;6.962;2022-09-29T12:29:51;16.40;57.60
42973;DHT22;28610;51.214;6.962;2022-09-29T12:32:40;16.50;55.80
42973;DHT22;28610;51.214;6.962;2022-09-29T12:35:34;16.70;58.30
42973;DHT22;28610;51.214;6.962;2022-09-29T12:38:26;16.70;54.00
42973;DHT22;28610;51.214;6.962;2022-09-29T12:41:18;16.70;54.70
42973;DHT22;28610;51.214;6.962;2022-09-29T12:44:11;16.90;55.20
42973;DHT22;28610;51.214;6.962;2022-09-29T12:47:08;16.90;56.70
42973;DHT22;28610;51.214;6.962;2022-09-29T12:50:04;16.90;54.10
42973;DHT22;28610;51.214;6.962;2022-09-29T12:52:54;16.30;54.00
42973;DHT22;28610;51.214;6.962;2022-09-29T12:55:46;16.00;55.40
42973;DHT22;28610;51.214;6.962;2022-09-29T12:58:38;15.80;59.10
42973;DHT22;28610;51.214;6.962;2022-09-29T13:01:27;15.70;56.60
42973;DHT22;28610;51.214;6.962;2022-09-29T13:04:39;15.50;57.10
42973;DHT22;28610;51.214;6.962;2022-09-29T13:08:18;15.70;60.60
42973;DHT22;28610;51.214;6.962;2022-09-29T13:11:31;15.60;57.60
42973;DHT22;28610;51.214;6.962;2022-09-29T13:14:37;15.40;59.70
42973;DHT22;28610;51.214;6.962;2022-09-29T13:17:40;15.40;57.40
42973;DHT22;28610;51.214;6.962;2022-09-29T13:20:40;15.50;56.40
42973;DHT22;28610;51.214;6.962;2022-09-29T13:27:14;15.40;58.30
42973;DHT22;28610;51.214;6.962;2022-09-29T13:30:14;15.30;60.80
42973;DHT22;28610;51.214;6.962;2022-09-29T13:33:06;15.10;63.90
42973;DHT22;28610;51.214;6.962;2022-09-29T13:35:53;15.00;64.00
42973;DHT22;28610;51.214;6.962;2022-09-29T13:38:45;14.90;66.10
42973;DHT22;28610;51.214;6.962;2022-09-29T13:41:34;14.80;66.50
42973;DHT22;28610;51.214;6.962;2022-09-29T13:44:25;14.80;67.90
42973;DHT22;28610;51.214;6.962;2022-09-29T13:53:44;14.80;69.20
42973;DHT22;28610;51.214;6.962;2022-09-29T13:56:29;14.80;70.00
42973;DHT22;28610;51.214;6.962;2022-09-29T13:59:19;14.80;71.00
42973;DHT22;28610;51.214;6.962;2022-09-29T14:02:18;14.80;71.40
42973;DHT22;28610;51.214;6.962;2022-09-29T14:05:04;14.90;68.70
42973;DHT22;28610;51.214;6.962;2022-09-29T14:08:11;15.00;69.00
42973;DHT22;28610;51.214;6.962;2022-09-29T14:11:04;15.00;71.10
42973;DHT22;28610;51.214;6.962;2022-09-29T14:13:56;15.10;71.80
42973;DHT22;28610;51.214;6.962;2022-09-29T14:16:47;15.10;70.50
42973;DHT22;28610;51.214;6.962;2022-09-29T14:19:44;15.10;71.90
42973;DHT22;28610;51.214;6.962;2022-09-29T14:22:53;15.20;71.50
42973;DHT22;28610;51.214;6.962;2022-09-29T14:25:50;15.10;70.40
42973;DHT22;28610;51.214;6.962;2022-09-29T14:28:40;15.30;70.60
42973;DHT22;28610;51.214;6.962;2022-09-29T14:31:26;15.30;72.30
42973;DHT22;28610;51.214;6.962;2022-09-29T14:34:14;15.30;71.40
42973;DHT22;28610;51.214;6.962;2022-09-29T14:37:01;15.30;72.10
42973;DHT22;28610;51.214;6.962;2022-09-29T14:39:47;15.40;73.30
42973;DHT22;28610;51.214;6.962;2022-09-29T14:42:46;15.40;71.70
42973;DHT22;28610;51.214;6.962;2022-09-29T14:45:56;15.30;69.40
42973;DHT22;28610;51.214;6.962;2022-09-29T14:49:27;15.30;68.50
42973;DHT22;28610;51.214;6.962;2022-09-29T14:52:45;15.30;71.00
42973;DHT22;28610;51.214;6.962;2022-09-29T14:55:41;15.30;72.80
42973;DHT22;28610;51.214;6.962;2022-09-29T14:58:50;15.50;70.60
42973;DHT22;28610;51.214;6.962;2022-09-29T15:02:02;15.60;68.90
42973;DHT22;28610;51.214;6.962;2022-09-29T15:04:52;15.60;62.30
42973;DHT22;28610;51.214;6.962;2022-09-29T15:07:39;15.70;60.80
42973;DHT22;28610;51.214;6.962;2022-09-29T15:10:27;15.70;58.70
42973;DHT22;28610;51.214;6.962;2022-09-29T15:13:14;15.70;56.80
42973;DHT22;28610;51.214;6.962;2022-09-29T15:16:09;15.70;62.60
42973;DHT22;28610;51.214;6.962;2022-09-29T15:19:08;15.60;60.70
42973;DHT22;28610;51.214;6.962;2022-09-29T15:22:06;15.50;60.00
42973;DHT22;28610;51.214;6.962;2022-09-29T15:25:18;15.40;60.90
42973;DHT22;28610;51.214;6.962;2022-09-29T15:28:15;15.30;62.10
42973;DHT22;28610;51.214;6.962;2022-09-29T15:31:03;15.20;62.30
42973;DHT22;28610;51.214;6.962;2022-09-29T15:33:49;15.10;63.10
42973;DHT22;28610;51.214;6.962;2022-09-29T15:36:37;15.00;64.00
42973;DHT22;28610;51.214;6.962;2022-09-29T15:39:41;14.90;66.90
42973;DHT22;28610;51.214;6.962;2022-09-29T15:42:27;14.90;64.30
42973;DHT22;28610;51.214;6.962;2022-09-29T15:45:17;14.90;64.20
42973;DHT22;28610;51.214;6.962;2022-09-29T15:48:05;14.80;61.10
42973;DHT22;28610;51.214;6.962;2022-09-29T15:50:52;14.80;66.70
42973;DHT22;28610;51.214;6.962;2022-09-29T15:53:40;14.80;68.70
42973;DHT22;28610;51.214;6.962;2022-09-29T15:56:25;14.80;66.00
42973;DHT22;28610;51.214;6.962;2022-09-29T15:59:17;14.80;68.00
42973;DHT22;28610;51.214;6.962;2022-09-29T16:02:04;14.80;69.30
42973;DHT22;28610;51.214;6.962;2022-09-29T16:04:53;14.80;66.20
42973;DHT22;28610;51.214;6.962;2022-09-29T16:07:47;14.70;66.90
42973;DHT22;28610;51.214;6.962;2022-09-29T16:10:38;14.60;67.20
42973;DHT22;28610;51.214;6.962;2022-09-29T16:13:27;14.50;70.40
42973;DHT22;28610;51.214;6.962;2022-09-29T16:16:13;14.30;73.50
42973;DHT22;28610;51.214;6.962;2022-09-29T16:19:02;14.40;74.00
42973;DHT22;28610;51.214;6.962;2022-09-29T16:21:51;14.40;75.10
42973;DHT22;28610;51.214;6.962;2022-09-29T16:24:50;14.30;76.30
42973;DHT22;28610;51.214;6.962;2022-09-29T16:27:44;14.30;77.20
42973;DHT22;28610;51.214;6.962;2022-09-29T16:30:33;14.10;76.40
42973;DHT22;28610;51.214;6.962;2022-09-29T16:33:22;14.10;78.80
42973;DHT22;28610;51.214;6.962;2022-09-29T16:36:13;14.10;79.60
42973;DHT22;28610;51.214;6.962;2022-09-29T16:39:02;14.00;80.60
42973;DHT22;28610;51.214;6.962;2022-09-29T16:41:49;13.90;80.80
42973;DHT22;28610;51.214;6.962;2022-09-29T16:44:41;13.90;81.70
42973;DHT22;28610;51.214;6.962;2022-09-29T16:47:28;13.80;83.10
42973;DHT22;28610;51.214;6.962;2022-09-29T16:50:14;13.70;83.70
42973;DHT22;28610;51.214;6.962;2022-09-29T16:52:59;13.60;82.60
42973;DHT22;28610;51.214;6.962;2022-09-29T16:55:55;13.50;83.20
42973;DHT22;28610;51.214;6.962;2022-09-29T16:58:41;13.40;83.70
42973;DHT22;28610;51.214;6.962;2022-09-29T17:01:28;13.40;84.60
42973;DHT22;28610;51.214;6.962;2022-09-29T17:04:13;13.30;86.00
42973;DHT22;28610;51.214;6.962;2022-09-29T17:06:59;13.20;85.80
42973;DHT22;28610;51.214;6.962;2022-09-29T17:09:46;13.10;86.00
42973;DHT22;28610;51.214;6.962;2022-09-29T17:12:31;12.80;86.30
42973;DHT22;28610;51.214;6.962;2022-09-29T17:15:17;12.80;87.60
42973;DHT22;28610;51.214;6.962;2022-09-29T17:18:04;12.80;88.30
42973;DHT22;28610;51.214;6.962;2022-09-29T17:20:50;12.70;89.30
42973;DHT22;28610;51.214;6.962;2022-09-29T17:23:35;12.60;90.00
42973;DHT22;28610;51.214;6.962;2022-09-29T17:26:25;12.50;90.00
42973;DHT22;28610;51.214;6.962;2022-09-29T17:29:29;12.50;90.20
42973;DHT22;28610;51.214;6.962;2022-09-29T17:32:14;12.50;90.30
42973;DHT22;28610;51.214;6.962;2022-09-29T17:35:02;12.30;90.10
42973;DHT22;28610;51.214;6.962;2022-09-29T17:37:47;12.30;90.30
42973;DHT22;28610;51.214;6.962;2022-09-29T17:40:34;12.30;90.00
42973;DHT22;28610;51.214;6.962;2022-09-29T17:43:21;12.30;90.40
42973;DHT22;28610;51.214;6.962;2022-09-29T17:46:08;12.20;90.40
42973;DHT22;28610;51.214;6.962;2022-09-29T17:48:55;12.10;90.10
42973;DHT22;28610;51.214;6.962;2022-09-29T17:51:42;11.90;90.30
42973;DHT22;28610;51.214;6.962;2022-09-29T17:54:27;11.80;90.60
42973;DHT22;28610;51.214;6.962;2022-09-29T17:57:19;11.60;92.00
42973;DHT22;28610;51.214;6.962;2022-09-29T18:00:12;11.50;92.10
42973;DHT22;28610;51.214;6.962;2022-09-29T18:02:59;11.50;92.20
42973;DHT22;28610;51.214;6.962;2022-09-29T18:05:46;11.50;92.00
42973;DHT22;28610;51.214;6.962;2022-09-29T18:08:33;11.50;92.40
42973;DHT22;28610;51.214;6.962;2022-09-29T18:11:20;11.50;92.30
42973;DHT22;28610;51.214;6.962;2022-09-29T18:14:05;11.60;92.60
42973;DHT22;28610;51.214;6.962;2022-09-29T18:16:51;11.60;92.50
42973;DHT22;28610;51.214;6.962;2022-09-29T18:19:39;11.60;92.50